Time;durP1;ratioP1;P1;durP2;ratioP2;P2;SDS_P1;SDS_P2;PMS_P1;PMS_P2;Temp;Humidity;BMP_temperature;BMP_pressure;BME280_temperature;BME280_humidity;BME280_pressure;Samples;Min_cycle;Max_cycle;Signal;HPM_P1;HPM_P2
2022/10/26 00:00:44;;;;;;;2.70;1.90;;;;;;;;;;10464165;28;20240;-74
2022/10/26 00:05:46;;;;;;;1.80;1.40;;;;;;;;;;10466568;28;20201;-74
2022/10/26 00:10:47;;;;;;;1.85;1.73;;;;;;;;;;10463400;28;20217;-73
2022/10/26 00:15:48;;;;;;;2.88;2.10;;;;;;;;;;10457734;28;20706;-74
2022/10/26 00:20:49;;;;;;;2.03;1.92;;;;;;;;;;10458486;28;20179;-74
2022/10/26 00:25:54;;;;;;;1.50;1.50;;;;;;;;;;10462589;28;20709;-74
2022/10/26 00:30:59;;;;;;;2.53;1.70;;;;;;;;;;10459706;28;20530;-74
2022/10/26 00:36:00;;;;;;;2.00;1.90;;;;;;;;;;10461278;28;20932;-74
2022/10/26 00:41:01;;;;;;;1.80;1.77;;;;;;;;;;10457501;28;20297;-74
2022/10/26 00:46:04;;;;;;;5.03;1.90;;;;;;;;;;10456812;28;20268;-74
2022/10/26 00:51:09;;;;;;;2.53;1.80;;;;;;;;;;10456240;28;20198;-74
2022/10/26 00:56:11;;;;;;;2.97;2.45;;;;;;;;;;10460219;28;20929;-74
2022/10/26 01:01:12;;;;;;;2.33;1.88;;;;;;;;;;10442927;28;20275;-74
2022/10/26 01:06:13;;;;;;;4.88;2.42;;;;;;;;;;10459703;28;20281;-74
2022/10/26 01:11:14;;;;;;;4.05;2.13;;;;;;;;;;10458850;28;20841;-74
2022/10/26 01:16:34;;;;;;;2.45;2.25;;;;;;;;;;10462238;28;20234;-74
2022/10/26 01:21:41;;;;;;;2.63;2.47;;;;;;;;;;10457874;28;20662;-73
2022/10/26 01:27:12;;;;;;;2.10;2.00;;;;;;;;;;10459195;28;20326;-74
2022/10/26 01:32:15;;;;;;;2.92;2.38;;;;;;;;;;10443336;28;20217;-74
2022/10/26 01:37:23;;;;;;;3.38;1.90;;;;;;;;;;10459516;28;20210;-74
2022/10/26 01:42:25;;;;;;;2.25;2.05;;;;;;;;;;10456892;28;20259;-74
2022/10/26 01:47:27;;;;;;;3.67;2.20;;;;;;;;;;10461017;28;20238;-74
2022/10/26 01:52:29;;;;;;;3.28;1.90;;;;;;;;;;10455515;28;20195;-74
2022/10/26 01:57:32;;;;;;;1.98;1.88;;;;;;;;;;10456691;28;20685;-74
2022/10/26 02:02:34;;;;;;;1.38;1.35;;;;;;;;;;10458899;28;20218;-74
2022/10/26 02:07:35;;;;;;;2.13;1.75;;;;;;;;;;10455472;28;20213;-73
2022/10/26 02:12:59;;;;;;;2.70;1.92;;;;;;;;;;10452811;28;20977;-74
2022/10/26 02:18:07;;;;;;;1.75;1.65;;;;;;;;;;10453760;28;20659;-74
2022/10/26 02:23:10;;;;;;;2.42;2.13;;;;;;;;;;10455101;28;20795;-74
2022/10/26 02:28:13;;;;;;;4.07;1.75;;;;;;;;;;10445321;28;20190;-74
2022/10/26 02:33:15;;;;;;;2.28;1.92;;;;;;;;;;10448534;28;20242;-74
2022/10/26 02:38:17;;;;;;;2.45;2.13;;;;;;;;;;10452640;28;20210;-74
2022/10/26 02:43:20;;;;;;;2.05;1.95;;;;;;;;;;10454698;28;21935;-74
2022/10/26 02:48:22;;;;;;;2.10;2.00;;;;;;;;;;10458208;28;20194;-74
2022/10/26 02:53:35;;;;;;;2.53;1.95;;;;;;;;;;10463751;28;20234;-73
2022/10/26 02:58:39;;;;;;;2.17;2.08;;;;;;;;;;10460863;28;20225;-74
2022/10/26 03:03:40;;;;;;;2.17;2.08;;;;;;;;;;10460088;28;20289;-74
2022/10/26 03:08:41;;;;;;;1.92;1.77;;;;;;;;;;10463687;28;20205;-74
2022/10/26 03:13:42;;;;;;;2.10;2.00;;;;;;;;;;10462994;28;20233;-74
2022/10/26 03:18:43;;;;;;;1.85;1.75;;;;;;;;;;10457231;28;20215;-74
2022/10/26 03:23:46;;;;;;;3.85;2.00;;;;;;;;;;10457919;28;20722;-74
2022/10/26 03:28:47;;;;;;;1.80;1.80;;;;;;;;;;10461035;28;20190;-74
2022/10/26 03:33:48;;;;;;;3.75;2.17;;;;;;;;;;10466303;28;20221;-74
2022/10/26 03:38:49;;;;;;;1.85;1.75;;;;;;;;;;10463165;28;20604;-73
2022/10/26 03:43:51;;;;;;;1.35;1.35;;;;;;;;;;10447756;28;20237;-74
2022/10/26 03:48:52;;;;;;;2.00;1.83;;;;;;;;;;10459583;28;20679;-73
2022/10/26 03:53:53;;;;;;;1.20;1.20;;;;;;;;;;10459630;28;20316;-74
2022/10/26 03:58:54;;;;;;;2.13;2.00;;;;;;;;;;10460409;28;20803;-74
2022/10/26 04:03:55;;;;;;;3.92;2.00;;;;;;;;;;10454104;28;20218;-74
2022/10/26 04:09:01;;;;;;;2.28;1.50;;;;;;;;;;10453419;28;20572;-74
2022/10/26 04:14:02;;;;;;;1.85;1.75;;;;;;;;;;10458359;28;20207;-74
2022/10/26 04:19:03;;;;;;;2.03;1.80;;;;;;;;;;10456550;28;20252;-75
2022/10/26 04:24:04;;;;;;;2.10;1.90;;;;;;;;;;10459028;28;20761;-75
2022/10/26 04:29:06;;;;;;;1.70;1.60;;;;;;;;;;10459707;28;20654;-74
2022/10/26 04:34:07;;;;;;;1.30;1.30;;;;;;;;;;10460644;28;20215;-75
2022/10/26 04:39:08;;;;;;;2.97;1.80;;;;;;;;;;10461464;28;20724;-74
2022/10/26 04:44:09;;;;;;;1.25;1.20;;;;;;;;;;10457265;28;20245;-74
2022/10/26 04:49:10;;;;;;;2.53;1.75;;;;;;;;;;10460732;28;20189;-74
2022/10/26 04:54:11;;;;;;;1.42;1.35;;;;;;;;;;10455011;28;20195;-75
2022/10/26 04:59:13;;;;;;;1.75;1.30;;;;;;;;;;10455830;28;21287;-74
2022/10/26 05:04:14;;;;;;;2.85;1.27;;;;;;;;;;10457782;28;20305;-75
2022/10/26 05:09:15;;;;;;;2.17;1.63;;;;;;;;;;10462326;28;20211;-74
2022/10/26 05:14:16;;;;;;;2.75;1.73;;;;;;;;;;10455947;28;20256;-74
2022/10/26 05:19:17;;;;;;;1.92;1.52;;;;;;;;;;10458875;28;20685;-75
2022/10/26 05:24:18;;;;;;;2.70;2.50;;;;;;;;;;10460590;28;20186;-75
2022/10/26 05:29:19;;;;;;;5.75;3.03;;;;;;;;;;10456682;28;20194;-75
2022/10/26 05:34:21;;;;;;;2.40;2.20;;;;;;;;;;10455457;28;20241;-74
2022/10/26 05:39:22;;;;;;;5.40;2.85;;;;;;;;;;10449990;28;20769;-74
2022/10/26 05:44:23;;;;;;;2.85;2.65;;;;;;;;;;10452044;28;20250;-74
2022/10/26 05:49:24;;;;;;;1.63;1.63;;;;;;;;;;10457908;28;20206;-74
2022/10/26 05:54:25;;;;;;;3.30;2.78;;;;;;;;;;10457686;28;20205;-74
2022/10/26 05:59:26;;;;;;;4.60;2.35;;;;;;;;;;10455327;28;20222;-74
2022/10/26 06:04:30;;;;;;;2.65;2.42;;;;;;;;;;10457216;28;20575;-74
2022/10/26 06:09:32;;;;;;;2.95;2.67;;;;;;;;;;10458606;28;21477;-74
2022/10/26 06:14:33;;;;;;;4.30;2.95;;;;;;;;;;10455910;28;20211;-74
2022/10/26 06:19:34;;;;;;;4.13;3.08;;;;;;;;;;10461373;28;20318;-73
2022/10/26 06:24:46;;;;;;;4.15;3.03;;;;;;;;;;10453300;28;20194;-74
2022/10/26 06:29:48;;;;;;;3.38;2.50;;;;;;;;;;10460072;28;20194;-74
2022/10/26 06:34:50;;;;;;;2.35;2.25;;;;;;;;;;10456667;28;20242;-74
2022/10/26 06:39:52;;;;;;;2.97;2.40;;;;;;;;;;10463962;28;20596;-74
2022/10/26 06:44:53;;;;;;;1.98;1.88;;;;;;;;;;10465949;28;20249;-74
2022/10/26 06:50:21;;;;;;;3.50;2.85;;;;;;;;;;10472343;28;20680;-74
2022/10/26 06:55:23;;;;;;;4.72;3.25;;;;;;;;;;10437692;28;20241;-73
2022/10/26 07:00:24;;;;;;;5.18;3.33;;;;;;;;;;10451915;28;20210;-75
2022/10/26 07:05:25;;;;;;;3.22;3.03;;;;;;;;;;10463116;28;20190;-75
2022/10/26 07:10:26;;;;;;;3.47;3.15;;;;;;;;;;10460386;28;20278;-75
2022/10/26 07:15:27;;;;;;;3.42;3.13;;;;;;;;;;10465295;28;20218;-75
2022/10/26 07:20:28;;;;;;;3.88;3.58;;;;;;;;;;10479719;28;20187;-74
2022/10/26 07:25:30;;;;;;;4.38;3.38;;;;;;;;;;10465033;28;20191;-74
2022/10/26 07:30:31;;;;;;;4.13;3.05;;;;;;;;;;10471037;28;20211;-73
2022/10/26 07:35:33;;;;;;;4.80;4.35;;;;;;;;;;10465677;28;20222;-74
2022/10/26 07:40:35;;;;;;;4.95;4.18;;;;;;;;;;10468927;28;20238;-73
2022/10/26 07:45:36;;;;;;;5.25;4.35;;;;;;;;;;10463200;28;20221;-74
2022/10/26 07:50:37;;;;;;;7.10;4.78;;;;;;;;;;10463844;28;20209;-74
2022/10/26 07:55:38;;;;;;;7.75;4.47;;;;;;;;;;10466569;28;20264;-74
2022/10/26 08:00:39;;;;;;;7.05;5.38;;;;;;;;;;10464310;28;20221;-73
2022/10/26 08:05:40;;;;;;;6.18;5.20;;;;;;;;;;10467861;28;20229;-73
2022/10/26 08:10:42;;;;;;;5.70;5.03;;;;;;;;;;10462304;28;20249;-74
2022/10/26 08:15:44;;;;;;;7.38;4.65;;;;;;;;;;10464662;28;20237;-73
2022/10/26 08:20:45;;;;;;;8.40;5.03;;;;;;;;;;10462754;28;20277;-74
2022/10/26 08:25:46;;;;;;;6.55;5.85;;;;;;;;;;10463630;28;20189;-75
2022/10/26 08:30:47;;;;;;;7.72;5.20;;;;;;;;;;10464742;28;20312;-74
2022/10/26 08:35:48;;;;;;;5.22;4.45;;;;;;;;;;10466240;28;20276;-75
2022/10/26 08:40:50;;;;;;;8.40;5.40;;;;;;;;;;10466722;28;20694;-75
2022/10/26 08:46:00;;;;;;;7.82;5.30;;;;;;;;;;10459603;28;20225;-75
2022/10/26 08:51:12;;;;;;;7.53;4.18;;;;;;;;;;10464917;28;20182;-76
2022/10/26 08:56:13;;;;;;;5.20;4.65;;;;;;;;;;10458973;28;20221;-76
2022/10/26 09:01:15;;;;;;;8.32;4.82;;;;;;;;;;10464109;28;20221;-76
2022/10/26 09:06:39;;;;;;;4.50;3.60;;;;;;;;;;10464919;28;20729;-74
2022/10/26 09:11:43;;;;;;;3.75;3.55;;;;;;;;;;10458043;28;20586;-78
2022/10/26 09:16:51;;;;;;;7.07;4.22;;;;;;;;;;10459516;28;20588;-77
2022/10/26 09:21:52;;;;;;;4.47;3.67;;;;;;;;;;10457385;28;20296;-76
2022/10/26 09:27:19;;;;;;;5.43;4.20;;;;;;;;;;10463698;28;20244;-77
2022/10/26 09:32:22;;;;;;;8.43;4.65;;;;;;;;;;10451180;28;20218;-76
2022/10/26 09:37:26;;;;;;;4.25;3.90;;;;;;;;;;10457552;28;20215;-78
2022/10/26 09:42:31;;;;;;;6.75;4.28;;;;;;;;;;10461174;28;20206;-78
2022/10/26 09:47:32;;;;;;;4.97;3.88;;;;;;;;;;10464237;28;20268;-76
2022/10/26 09:52:33;;;;;;;3.88;2.92;;;;;;;;;;10454061;28;20201;-74
2022/10/26 09:57:35;;;;;;;6.47;3.13;;;;;;;;;;10455733;28;20218;-74
2022/10/26 10:02:37;;;;;;;4.50;2.50;;;;;;;;;;10453570;28;20218;-74
2022/10/26 10:07:38;;;;;;;3.88;2.55;;;;;;;;;;10456623;28;20396;-73
2022/10/26 10:12:39;;;;;;;3.05;2.85;;;;;;;;;;10452205;28;20783;-75
2022/10/26 10:17:40;;;;;;;2.63;2.42;;;;;;;;;;10455278;28;20221;-75
2022/10/26 10:22:52;;;;;;;3.28;2.03;;;;;;;;;;10458236;28;20240;-74
2022/10/26 10:27:54;;;;;;;2.45;2.20;;;;;;;;;;10456979;28;20190;-74
2022/10/26 10:33:10;;;;;;;2.45;2.35;;;;;;;;;;10457691;28;20640;-75
2022/10/26 10:38:16;;;;;;;2.53;2.35;;;;;;;;;;10457647;28;20209;-74
2022/10/26 10:43:17;;;;;;;2.97;1.75;;;;;;;;;;10462210;28;20665;-73
2022/10/26 10:48:20;;;;;;;3.40;1.90;;;;;;;;;;10454352;28;20190;-73
2022/10/26 10:53:23;;;;;;;3.85;2.40;;;;;;;;;;10453075;28;20584;-74
2022/10/26 10:58:30;;;;;;;5.85;2.20;;;;;;;;;;10457684;28;20248;-74
2022/10/26 11:03:36;;;;;;;4.03;2.55;;;;;;;;;;10456748;28;20214;-74
2022/10/26 11:08:37;;;;;;;6.10;2.95;;;;;;;;;;10458268;28;20973;-73
2022/10/26 11:13:48;;;;;;;7.03;2.17;;;;;;;;;;10451290;28;20669;-73
2022/10/26 11:18:51;;;;;;;2.95;1.95;;;;;;;;;;10457274;28;20213;-74
2022/10/26 11:23:55;;;;;;;7.93;2.20;;;;;;;;;;10446257;28;20208;-74
2022/10/26 11:28:59;;;;;;;6.38;2.45;;;;;;;;;;10459363;28;20221;-73
2022/10/26 11:34:24;;;;;;;1.75;1.65;;;;;;;;;;10464349;28;20218;-74
2022/10/26 11:39:34;;;;;;;6.15;2.33;;;;;;;;;;10461072;28;20227;-73
2022/10/26 11:44:39;;;;;;;2.00;1.90;;;;;;;;;;10460972;28;20690;-73
2022/10/26 11:49:44;;;;;;;4.65;1.92;;;;;;;;;;10468322;28;20202;-73
2022/10/26 11:54:48;;;;;;;4.10;2.00;;;;;;;;;;10461351;28;20316;-72
2022/10/26 12:00:00;;;;;;;4.53;2.40;;;;;;;;;;10456760;28;20221;-66
2022/10/26 12:05:16;;;;;;;3.35;2.30;;;;;;;;;;10453305;28;20252;-67
2022/10/26 12:10:31;;;;;;;7.18;2.08;;;;;;;;;;10460155;28;20270;-73
2022/10/26 12:15:43;;;;;;;3.05;1.88;;;;;;;;;;10455010;28;20215;-73
2022/10/26 12:21:01;;;;;;;2.25;1.40;;;;;;;;;;10459013;28;20195;-71
2022/10/26 12:26:21;;;;;;;4.28;1.33;;;;;;;;;;10455869;28;20612;-71
2022/10/26 12:31:41;;;;;;;2.05;1.23;;;;;;;;;;10456065;28;20226;-73
2022/10/26 12:36:54;;;;;;;1.45;1.40;;;;;;;;;;10447077;28;20227;-72
2022/10/26 12:41:57;;;;;;;2.00;1.50;;;;;;;;;;10457825;28;20225;-71
2022/10/26 12:46:58;;;;;;;2.05;1.40;;;;;;;;;;10452268;28;20225;-71
2022/10/26 12:51:59;;;;;;;1.13;1.10;;;;;;;;;;10463212;28;20792;-72
2022/10/26 12:57:12;;;;;;;3.58;1.17;;;;;;;;;;10455578;28;20261;-72
2022/10/26 13:02:23;;;;;;;3.40;1.05;;;;;;;;;;10458929;28;20225;-71
2022/10/26 13:07:25;;;;;;;3.65;1.20;;;;;;;;;;10456334;28;20199;-71
2022/10/26 13:12:27;;;;;;;2.92;0.93;;;;;;;;;;10451372;28;20354;-72
2022/10/26 13:17:30;;;;;;;1.80;1.20;;;;;;;;;;10455387;28;20767;-71
2022/10/26 13:22:32;;;;;;;5.00;1.00;;;;;;;;;;10455342;28;20183;-72
2022/10/26 13:27:33;;;;;;;1.60;1.25;;;;;;;;;;10455176;28;20732;-73
2022/10/26 13:32:35;;;;;;;4.00;1.10;;;;;;;;;;10454261;28;20218;-73
2022/10/26 13:37:37;;;;;;;3.78;1.55;;;;;;;;;;10453182;28;20601;-73
2022/10/26 13:42:44;;;;;;;1.70;1.35;;;;;;;;;;10453281;28;20686;-72
2022/10/26 13:47:49;;;;;;;1.20;1.00;;;;;;;;;;10453525;28;20854;-73
2022/10/26 13:52:52;;;;;;;0.80;0.80;;;;;;;;;;10455097;28;20934;-71
2022/10/26 13:58:02;;;;;;;1.67;0.60;;;;;;;;;;10458813;28;20260;-73
2022/10/26 14:03:13;;;;;;;1.92;1.05;;;;;;;;;;10452486;28;20211;-73
2022/10/26 14:08:16;;;;;;;0.82;0.82;;;;;;;;;;10458249;28;20194;-72
2022/10/26 14:13:21;;;;;;;1.02;0.80;;;;;;;;;;10451748;28;20898;-72
2022/10/26 14:18:26;;;;;;;1.67;0.70;;;;;;;;;;10452800;28;21137;-73
2022/10/26 14:23:28;;;;;;;1.10;1.05;;;;;;;;;;10450771;28;20198;-73
2022/10/26 14:28:43;;;;;;;3.30;1.45;;;;;;;;;;10452389;28;20240;-72
2022/10/26 14:33:44;;;;;;;0.57;0.50;;;;;;;;;;10453331;28;21451;-72
2022/10/26 14:38:47;;;;;;;1.00;0.77;;;;;;;;;;10448165;28;20324;-73
2022/10/26 14:43:48;;;;;;;2.20;0.60;;;;;;;;;;10468182;28;20551;-72
2022/10/26 14:48:52;;;;;;;0.85;0.57;;;;;;;;;;10451755;28;20267;-72
2022/10/26 14:53:54;;;;;;;1.98;0.77;;;;;;;;;;10456127;28;20920;-72
2022/10/26 14:58:56;;;;;;;1.13;0.75;;;;;;;;;;10463085;28;20250;-72
2022/10/26 15:03:58;;;;;;;2.47;1.42;;;;;;;;;;10473724;28;20218;-80
2022/10/26 15:09:00;;;;;;;2.72;1.42;;;;;;;;;;10468360;28;20187;-79
2022/10/26 15:14:02;;;;;;;1.00;0.90;;;;;;;;;;10463563;28;20217;-77
2022/10/26 15:19:10;;;;;;;1.05;0.90;;;;;;;;;;10464603;28;20210;-74
2022/10/26 15:24:20;;;;;;;3.47;0.90;;;;;;;;;;10461239;28;20550;-76
2022/10/26 15:29:35;;;;;;;0.75;0.70;;;;;;;;;;10461754;28;20646;-75
2022/10/26 15:34:36;;;;;;;0.93;0.93;;;;;;;;;;10459919;28;20357;-75
2022/10/26 15:39:37;;;;;;;7.43;1.08;;;;;;;;;;10458590;28;20222;-76
2022/10/26 15:44:38;;;;;;;3.60;1.05;;;;;;;;;;10461028;28;20381;-72
2022/10/26 15:49:39;;;;;;;3.15;1.33;;;;;;;;;;10470972;28;20191;-76
2022/10/26 15:54:40;;;;;;;3.35;0.90;;;;;;;;;;10464335;28;20635;-73
2022/10/26 15:59:42;;;;;;;3.13;1.05;;;;;;;;;;10458140;28;20214;-73
2022/10/26 16:04:43;;;;;;;1.02;0.70;;;;;;;;;;10460609;28;20215;-73
2022/10/26 16:09:44;;;;;;;1.00;1.00;;;;;;;;;;10460074;28;20193;-73
2022/10/26 16:14:45;;;;;;;1.55;1.30;;;;;;;;;;10459823;28;20274;-74
2022/10/26 16:19:47;;;;;;;4.78;1.55;;;;;;;;;;10460868;28;20214;-75
2022/10/26 16:24:48;;;;;;;12.35;7.13;;;;;;;;;;10455735;28;20179;-74
2022/10/26 16:29:49;;;;;;;6.38;4.68;;;;;;;;;;10463513;28;20194;-76
2022/10/26 16:34:50;;;;;;;6.40;5.18;;;;;;;;;;10460758;28;20230;-76
2022/10/26 16:39:51;;;;;;;5.10;2.63;;;;;;;;;;10462064;28;20221;-76
2022/10/26 16:44:52;;;;;;;1.73;1.63;;;;;;;;;;10462127;28;20324;-76
2022/10/26 16:49:53;;;;;;;2.60;2.40;;;;;;;;;;10461022;28;20669;-76
2022/10/26 16:54:54;;;;;;;1.77;1.77;;;;;;;;;;10459374;28;20187;-76
2022/10/26 16:59:56;;;;;;;1.77;1.67;;;;;;;;;;10462511;28;20221;-76
2022/10/26 17:04:57;;;;;;;1.77;1.70;;;;;;;;;;10460450;28;20298;-76
2022/10/26 17:09:58;;;;;;;7.50;3.90;;;;;;;;;;10461064;28;20203;-72
2022/10/26 17:15:00;;;;;;;4.78;3.58;;;;;;;;;;10456232;28;20214;-72
2022/10/26 17:20:01;;;;;;;9.85;4.15;;;;;;;;;;10458920;28;20221;-72
2022/10/26 17:25:02;;;;;;;3.00;2.45;;;;;;;;;;10459015;28;20178;-72
2022/10/26 17:30:04;;;;;;;4.15;2.33;;;;;;;;;;10459646;28;20190;-74
2022/10/26 17:35:05;;;;;;;2.97;2.75;;;;;;;;;;10457728;28;20244;-74
2022/10/26 17:40:06;;;;;;;3.25;2.55;;;;;;;;;;10452911;28;20757;-75
2022/10/26 17:45:08;;;;;;;2.22;2.10;;;;;;;;;;10454296;28;20706;-75
2022/10/26 17:50:10;;;;;;;1.40;1.40;;;;;;;;;;10458907;28;20191;-75
2022/10/26 17:55:11;;;;;;;1.85;1.75;;;;;;;;;;10455891;28;20185;-75
2022/10/26 18:00:13;;;;;;;3.08;1.40;;;;;;;;;;10459149;28;20218;-75
2022/10/26 18:05:14;;;;;;;1.30;1.30;;;;;;;;;;10461926;28;20222;-75
2022/10/26 18:10:15;;;;;;;1.73;1.30;;;;;;;;;;10455770;28;20277;-71
2022/10/26 18:15:16;;;;;;;1.20;1.20;;;;;;;;;;10452402;28;20210;-71
2022/10/26 18:20:19;;;;;;;4.78;1.20;;;;;;;;;;10453508;28;20756;-76
2022/10/26 18:25:20;;;;;;;1.05;1.05;;;;;;;;;;10455323;28;20202;-74
2022/10/26 18:30:22;;;;;;;1.40;1.30;;;;;;;;;;10453604;28;20558;-72
2022/10/26 18:35:23;;;;;;;0.88;0.88;;;;;;;;;;10465391;28;20182;-73
2022/10/26 18:40:24;;;;;;;1.00;1.00;;;;;;;;;;10463027;28;20191;-74
2022/10/26 18:45:25;;;;;;;2.60;1.00;;;;;;;;;;10463607;28;20275;-73
2022/10/26 18:50:26;;;;;;;1.85;0.90;;;;;;;;;;10461048;28;20650;-75
2022/10/26 18:55:27;;;;;;;1.63;1.00;;;;;;;;;;10464741;28;21230;-73
2022/10/26 19:00:28;;;;;;;1.48;1.38;;;;;;;;;;10464202;28;20281;-74
2022/10/26 19:05:29;;;;;;;3.53;1.90;;;;;;;;;;10465922;28;20187;-71
2022/10/26 19:10:32;;;;;;;4.15;2.72;;;;;;;;;;10463881;28;20178;-70
2022/10/26 19:15:33;;;;;;;3.60;3.30;;;;;;;;;;10459827;28;20218;-74
2022/10/26 19:20:34;;;;;;;4.30;4.00;;;;;;;;;;10458139;28;20195;-72
2022/10/26 19:25:35;;;;;;;4.60;4.10;;;;;;;;;;10462077;28;20199;-70
2022/10/26 19:30:38;;;;;;;4.47;4.15;;;;;;;;;;10458903;28;20190;-72
2022/10/26 19:35:39;;;;;;;6.18;4.93;;;;;;;;;;10458481;28;20182;-72
2022/10/26 19:40:40;;;;;;;4.50;4.15;;;;;;;;;;10462241;28;20229;-70
2022/10/26 19:45:41;;;;;;;5.03;4.43;;;;;;;;;;10461561;28;20214;-71
2022/10/26 19:50:48;;;;;;;4.45;4.25;;;;;;;;;;10461359;28;20179;-71
2022/10/26 19:55:56;;;;;;;3.70;3.40;;;;;;;;;;10462307;28;20224;-69
2022/10/26 20:01:00;;;;;;;4.05;3.63;;;;;;;;;;10461772;28;20762;-68
2022/10/26 20:06:07;;;;;;;4.25;3.58;;;;;;;;;;10461881;28;20685;-73
2022/10/26 20:11:09;;;;;;;3.70;3.28;;;;;;;;;;10461160;28;20241;-73
2022/10/26 20:16:10;;;;;;;3.20;3.10;;;;;;;;;;10464563;28;20214;-73
2022/10/26 20:21:15;;;;;;;3.03;2.70;;;;;;;;;;10465874;28;20269;-73
2022/10/26 20:26:16;;;;;;;2.67;2.47;;;;;;;;;;10463832;28;20195;-73
2022/10/26 20:31:17;;;;;;;2.20;2.17;;;;;;;;;;10465082;28;20719;-73
2022/10/26 20:36:18;;;;;;;2.97;2.88;;;;;;;;;;10465640;28;20206;-72
2022/10/26 20:41:19;;;;;;;5.35;3.10;;;;;;;;;;10462345;28;20723;-73
2022/10/26 20:46:22;;;;;;;3.20;3.00;;;;;;;;;;10464637;28;20222;-74
2022/10/26 20:51:47;;;;;;;2.67;2.45;;;;;;;;;;10463154;28;20248;-73
2022/10/26 20:56:49;;;;;;;5.05;3.05;;;;;;;;;;10457874;28;20785;-73
2022/10/26 21:01:50;;;;;;;3.55;3.03;;;;;;;;;;10461086;28;20221;-73
2022/10/26 21:06:51;;;;;;;2.88;2.67;;;;;;;;;;10462200;28;20194;-73
2022/10/26 21:11:56;;;;;;;3.47;3.17;;;;;;;;;;10460381;28;20721;-73
2022/10/26 21:16:57;;;;;;;2.90;1.98;;;;;;;;;;10458418;28;20218;-73
2022/10/26 21:21:58;;;;;;;2.60;2.50;;;;;;;;;;10459384;28;20663;-73
2022/10/26 21:26:59;;;;;;;3.38;3.08;;;;;;;;;;10444016;28;20274;-74
2022/10/26 21:32:00;;;;;;;2.95;2.75;;;;;;;;;;10460191;28;20223;-73
2022/10/26 21:37:02;;;;;;;2.60;2.42;;;;;;;;;;10458990;28;20689;-73
2022/10/26 21:42:03;;;;;;;2.63;2.58;;;;;;;;;;10460425;28;20984;-73
2022/10/26 21:47:04;;;;;;;2.60;2.50;;;;;;;;;;10461247;28;20225;-73
2022/10/26 21:52:06;;;;;;;3.08;2.88;;;;;;;;;;10445091;28;20271;-73
2022/10/26 21:57:07;;;;;;;3.20;2.67;;;;;;;;;;10457775;28;20218;-73
2022/10/26 22:02:08;;;;;;;2.85;2.65;;;;;;;;;;10460496;28;20722;-73
2022/10/26 22:07:09;;;;;;;2.40;2.30;;;;;;;;;;10460733;28;20182;-72
2022/10/26 22:12:10;;;;;;;2.40;2.30;;;;;;;;;;10464163;28;20261;-74
2022/10/26 22:17:11;;;;;;;2.33;1.95;;;;;;;;;;10462173;28;20210;-73
2022/10/26 22:22:12;;;;;;;3.03;2.40;;;;;;;;;;10459577;28;20214;-72
2022/10/26 22:27:14;;;;;;;2.10;2.00;;;;;;;;;;10465109;28;20194;-73
2022/10/26 22:32:15;;;;;;;2.70;2.05;;;;;;;;;;10462287;28;20214;-73
2022/10/26 22:37:16;;;;;;;2.90;2.30;;;;;;;;;;10458210;28;20219;-73
2022/10/26 22:42:17;;;;;;;3.88;2.60;;;;;;;;;;10459006;28;20576;-73
2022/10/26 22:47:18;;;;;;;3.40;2.88;;;;;;;;;;10461016;28;20217;-73
2022/10/26 22:52:21;;;;;;;3.15;2.42;;;;;;;;;;10459062;28;20205;-73
2022/10/26 22:57:22;;;;;;;5.63;2.30;;;;;;;;;;10458887;28;20301;-73
2022/10/26 23:02:24;;;;;;;2.63;2.53;;;;;;;;;;10463205;28;20799;-73
2022/10/26 23:07:25;;;;;;;2.70;2.50;;;;;;;;;;10460981;28;20209;-73
2022/10/26 23:12:26;;;;;;;2.53;2.33;;;;;;;;;;10454748;28;20216;-73
2022/10/26 23:17:27;;;;;;;2.42;2.33;;;;;;;;;;10463970;28;20838;-73
2022/10/26 23:22:28;;;;;;;2.95;2.53;;;;;;;;;;10467126;28;20571;-72
2022/10/26 23:27:29;;;;;;;2.10;2.00;;;;;;;;;;10467591;28;20260;-72
2022/10/26 23:32:30;;;;;;;2.10;2.10;;;;;;;;;;10465157;28;20226;-74
2022/10/26 23:37:31;;;;;;;2.55;2.45;;;;;;;;;;10468236;28;20210;-73
2022/10/26 23:42:32;;;;;;;2.53;2.33;;;;;;;;;;10468189;28;20293;-73
2022/10/26 23:47:33;;;;;;;3.03;2.75;;;;;;;;;;10466053;28;20221;-73
2022/10/26 23:52:34;;;;;;;2.38;2.28;;;;;;;;;;10464502;28;20273;-72
2022/10/26 23:57:38;;;;;;;2.88;2.60;;;;;;;;;;10463958;28;20688;-73
